createdAt,value
2019-05-30T16:48:32.456Z,21.70
2019-05-30T16:51:54.505Z,21.70
2019-05-30T16:54:24.242Z,21.80
2019-05-30T16:56:53.769Z,21.90
2019-05-30T16:59:23.293Z,22.00
2019-05-30T17:01:58.051Z,22.10
2019-05-30T17:04:24.721Z,22.20
2019-05-30T17:06:54.248Z,22.20
2019-05-30T17:09:23.764Z,22.30
2019-05-30T17:11:53.378Z,22.40
2019-05-30T17:14:23.924Z,22.30
2019-05-30T17:16:53.996Z,22.20
2019-05-30T17:19:24.530Z,21.90
2019-05-30T17:21:55.987Z,21.70
2019-05-30T17:24:27.136Z,21.60
2019-05-30T17:26:57.366Z,21.50
2019-05-30T17:29:27.724Z,21.50
2019-05-30T17:31:57.717Z,21.50
2019-05-30T17:34:28.197Z,21.50
2019-05-30T17:36:57.420Z,21.40
2019-05-30T17:39:27.342Z,21.30
2019-05-30T17:41:57.332Z,21.30
2019-05-30T17:44:27.313Z,21.30
2019-05-30T17:46:57.086Z,21.20
2019-05-30T17:49:27.868Z,21.10
2019-05-30T17:54:19.809Z,21.00
2019-05-30T17:56:52.444Z,20.90
2019-05-30T17:59:22.343Z,20.90
2019-05-30T18:01:52.044Z,20.90
2019-05-30T18:04:22.480Z,20.90
2019-05-30T18:06:52.280Z,21.00
2019-05-30T18:09:23.062Z,21.00
2019-05-30T18:11:52.920Z,21.00
2019-05-30T18:14:23.032Z,20.90
2019-05-30T18:16:52.744Z,20.90
2019-05-30T18:19:23.283Z,20.80
2019-05-30T18:21:52.571Z,20.60
2019-05-30T18:24:23.149Z,20.50
2019-05-30T18:26:53.246Z,20.40
2019-05-30T18:29:23.820Z,20.40
2019-05-30T18:31:53.883Z,20.30
2019-05-30T18:34:24.117Z,20.20
2019-05-30T18:36:55.229Z,20.10
2019-05-30T18:39:24.877Z,20.00
2019-05-30T18:41:54.772Z,20.00
2019-05-30T18:44:28.816Z,19.90
2019-05-30T18:46:56.676Z,19.90
2019-05-30T18:49:27.127Z,19.80
2019-05-30T18:51:57.031Z,19.80
2019-05-30T18:54:26.791Z,19.70
2019-05-30T18:56:57.557Z,19.70
2019-05-30T18:59:26.919Z,19.70
2019-05-30T19:01:56.533Z,19.60
2019-05-30T19:04:27.347Z,19.50
2019-05-30T19:06:57.290Z,19.50
2019-05-30T19:09:27.135Z,19.40
2019-05-30T19:11:57.132Z,19.40
2019-05-30T19:14:29.744Z,19.30
2019-05-30T19:16:58.592Z,19.30
2019-05-30T19:19:29.627Z,19.20
2019-05-30T19:22:00.476Z,19.10
2019-05-30T19:24:30.376Z,19.10
2019-05-30T19:26:59.895Z,19.00
2019-05-30T19:29:31.060Z,19.00
2019-05-30T19:32:00.931Z,18.90
2019-05-30T19:34:30.873Z,18.80
2019-05-30T19:37:00.768Z,18.80
2019-05-30T19:39:31.444Z,18.70
2019-05-30T19:42:00.577Z,18.70
2019-05-30T19:44:30.104Z,18.70
2019-05-30T19:47:00.084Z,18.70
2019-05-30T19:49:30.351Z,18.70
2019-05-30T19:52:00.262Z,18.60
2019-05-30T19:54:30.839Z,18.60
2019-05-30T19:57:00.505Z,18.50
2019-05-30T19:59:31.600Z,18.50
2019-05-30T20:02:01.552Z,18.40
2019-05-30T20:04:32.187Z,18.40
2019-05-30T20:07:01.367Z,18.40
2019-05-30T20:09:32.509Z,18.40
2019-05-30T20:12:04.962Z,18.30
2019-05-30T20:14:35.014Z,18.20
2019-05-30T20:17:05.157Z,18.20
2019-05-30T20:19:35.587Z,18.20
2019-05-30T20:22:05.391Z,18.10
2019-05-30T20:24:36.136Z,18.10
2019-05-30T20:27:07.253Z,18.00
2019-05-30T20:29:37.217Z,18.00
2019-05-30T20:32:07.083Z,17.90
2019-05-30T20:34:36.800Z,17.80
2019-05-30T20:37:06.510Z,17.70
2019-05-30T20:39:36.585Z,17.70
2019-05-30T20:42:18.741Z,17.60
2019-05-30T20:44:38.867Z,17.50
2019-05-30T20:47:08.672Z,17.50
2019-05-30T20:49:39.143Z,17.50
2019-05-30T20:52:08.864Z,17.50
2019-05-30T20:54:39.262Z,17.50
2019-05-30T20:57:09.137Z,17.40
2019-05-30T20:59:38.996Z,17.40
2019-05-30T21:02:08.536Z,17.40
2019-05-30T21:04:38.814Z,17.40
2019-05-30T21:07:10.366Z,17.50
2019-05-30T21:09:40.423Z,17.40
2019-05-30T21:12:11.692Z,17.30
2019-05-30T21:14:43.548Z,17.20
2019-05-30T21:17:16.227Z,17.10
2019-05-30T21:19:46.279Z,17.00
2019-05-30T21:22:16.130Z,17.00
2019-05-30T21:24:47.028Z,16.90
2019-05-30T21:27:16.846Z,17.00
2019-05-30T21:29:47.610Z,16.90
2019-05-30T21:32:17.861Z,17.00
2019-05-30T21:34:48.582Z,17.00
2019-05-30T21:37:18.488Z,16.90
2019-05-30T21:39:48.379Z,16.90
2019-05-30T21:42:18.367Z,16.80
2019-05-30T21:44:51.383Z,16.80
2019-05-30T21:47:19.751Z,16.70
2019-05-30T21:49:49.278Z,16.70
2019-05-30T21:52:19.213Z,16.70
2019-05-30T21:54:50.129Z,16.70
2019-05-30T21:57:19.812Z,16.70
2019-05-30T21:59:50.760Z,16.60
2019-05-30T22:02:20.483Z,16.60
2019-05-30T22:04:50.791Z,16.50
2019-05-30T22:07:20.791Z,16.50
2019-05-30T22:09:51.528Z,16.40
2019-05-30T22:12:20.527Z,16.40
2019-05-30T22:14:50.072Z,16.40
2019-05-30T22:17:19.964Z,16.40
2019-05-30T22:19:50.021Z,16.40
2019-05-30T22:22:19.791Z,16.40
2019-05-30T22:24:50.539Z,16.30
2019-05-30T22:27:20.055Z,16.30
2019-05-30T22:29:50.560Z,16.30
2019-05-30T22:32:20.294Z,16.20
2019-05-30T22:34:50.864Z,16.10
2019-05-30T22:37:20.587Z,16.10
2019-05-30T22:39:51.265Z,16.10
2019-05-30T22:42:20.767Z,16.10
2019-05-30T22:44:50.299Z,16.10
2019-05-30T22:47:20.173Z,16.10
2019-05-30T22:49:50.746Z,16.10
2019-05-30T22:52:20.404Z,16.00
2019-05-30T22:54:51.136Z,15.90
2019-05-30T22:57:20.039Z,15.90
2019-05-30T22:59:50.908Z,15.80
2019-05-30T23:02:20.882Z,15.80
2019-05-30T23:04:50.427Z,15.70
2019-05-30T23:07:20.404Z,15.70
2019-05-30T23:09:51.726Z,15.50
2019-05-30T23:12:21.891Z,15.40
2019-05-30T23:14:52.271Z,15.40
2019-05-30T23:17:22.116Z,15.40
2019-05-30T23:19:53.254Z,15.40
2019-05-30T23:22:23.180Z,15.50
2019-05-30T23:24:53.954Z,15.50
2019-05-30T23:27:22.983Z,15.50
2019-05-30T23:29:53.804Z,15.50
2019-05-30T23:32:23.663Z,15.50
2019-05-30T23:34:54.600Z,15.40
2019-05-30T23:37:24.275Z,15.40
2019-05-30T23:39:54.851Z,15.40
2019-05-30T23:42:24.574Z,15.40
2019-05-30T23:44:55.432Z,15.40
2019-05-30T23:47:25.245Z,15.30
2019-05-30T23:49:55.942Z,15.30
2019-05-30T23:52:25.847Z,15.30
2019-05-30T23:54:56.303Z,15.30
2019-05-30T23:57:26.076Z,15.20
2019-05-30T23:59:56.837Z,15.10
